Terminal Aerodrome Forecast
Issued by NWS

Home | Current Version | Previous Version | Graphics & Text | Print | Product List | Glossary On
Versions: 1 2 3 4 5 6 7 8 9 10 11 12 13 14 15 16 17
000
FTUS43 KMPX 191700
TAFRWF
TAF
KRWF 191738Z 1918/2018 32007KT P6SM SCT035 SCT200
     FM200300 VRB03KT P6SM SCT250
      TEMPO 2009/2012 4SM BR SCT250
     FM201500 15005KT P6SM BKN250=

USA.gov is the U.S. government's official web portal to all federal, state and local government web resources and services.